createdAt,value
2022-08-23T00:05:16.587Z,46.53
2022-08-23T00:14:48.416Z,46.02
2022-08-23T00:24:22.930Z,46.38
2022-08-23T00:33:54.723Z,45.86
2022-08-23T00:43:28.943Z,45.96
2022-08-23T00:53:02.658Z,46.32
2022-08-23T01:02:35.744Z,46.75
2022-08-23T01:12:11.792Z,47.25
2022-08-23T01:21:45.677Z,47.79
2022-08-23T01:31:17.878Z,48.53
2022-08-23T01:40:52.034Z,49.08
2022-08-23T01:50:26.958Z,49.29
2022-08-23T01:59:59.461Z,49.82
2022-08-23T02:09:34.121Z,50.20
2022-08-23T02:19:08.321Z,50.99
2022-08-23T02:28:41.697Z,52.35
2022-08-23T02:38:17.457Z,52.20
2022-08-23T02:47:49.741Z,52.81
2022-08-23T02:57:25.340Z,52.88
2022-08-23T03:06:57.323Z,53.61
2022-08-23T03:16:30.865Z,54.03
2022-08-23T03:26:06.422Z,54.52
2022-08-23T03:35:40.752Z,55.28
2022-08-23T03:45:13.195Z,55.97
2022-08-23T03:54:46.835Z,56.22
2022-08-23T04:04:22.207Z,56.40
2022-08-23T04:13:55.749Z,56.48
2022-08-23T04:23:28.438Z,57.08
2022-08-23T04:33:01.590Z,57.61
2022-08-23T04:42:37.104Z,57.74
2022-08-23T04:52:09.686Z,58.06
2022-08-23T05:01:44.195Z,58.25
2022-08-23T05:11:18.610Z,59.72
2022-08-23T05:20:53.257Z,61.02
2022-08-23T05:30:29.173Z,61.20
2022-08-23T05:40:02.090Z,61.56
2022-08-23T05:49:38.317Z,62.08
2022-08-23T05:59:12.970Z,61.34
2022-08-23T06:08:46.096Z,62.59
2022-08-23T06:18:20.904Z,60.31
2022-08-23T06:27:56.511Z,57.77
2022-08-23T06:37:31.116Z,57.23
2022-08-23T06:47:06.041Z,57.21
2022-08-23T06:56:42.826Z,57.09
2022-08-23T07:06:15.781Z,56.46
2022-08-23T07:07:19.950Z,56.88
2022-08-23T07:08:22.273Z,56.38
2022-08-23T07:09:26.413Z,54.42
2022-08-23T07:10:30.333Z,54.16
2022-08-23T07:11:32.676Z,54.74
2022-08-23T07:12:35.100Z,54.77
2022-08-23T07:13:37.630Z,53.38
2022-08-23T07:14:41.718Z,53.77
2022-08-23T07:15:44.111Z,53.90
2022-08-23T07:16:48.135Z,52.50
2022-08-23T07:26:19.289Z,53.01
2022-08-23T07:27:21.834Z,53.53
2022-08-23T07:28:24.312Z,54.65
2022-08-23T07:29:28.518Z,54.17
2022-08-23T07:30:30.869Z,54.25
2022-08-23T07:31:33.400Z,54.27
2022-08-23T07:32:35.789Z,53.66
2022-08-23T07:33:38.364Z,53.18
2022-08-23T07:34:42.373Z,53.04
2022-08-23T07:35:46.314Z,53.00
2022-08-23T07:36:50.286Z,53.02
2022-08-23T07:37:54.259Z,52.28
2022-08-23T07:38:58.298Z,52.82
2022-08-23T07:40:00.700Z,52.19
2022-08-23T07:41:03.113Z,52.09
2022-08-23T07:42:22.121Z,52.63
2022-08-23T07:43:09.599Z,51.65
2022-08-23T07:44:12.086Z,51.58
2022-08-23T07:45:16.246Z,51.38
2022-08-23T07:46:20.352Z,51.93
2022-08-23T07:47:22.667Z,52.72
2022-08-23T07:56:55.226Z,50.68
2022-08-23T07:57:57.699Z,50.74
2022-08-23T07:59:01.783Z,51.06
2022-08-23T08:00:04.313Z,50.48
2022-08-23T08:01:08.454Z,50.20
2022-08-23T08:02:10.807Z,50.09
2022-08-23T08:03:14.969Z,50.18
2022-08-23T08:04:17.294Z,49.60
2022-08-23T08:05:21.835Z,49.33
2022-08-23T08:06:22.432Z,49.05
2022-08-23T08:07:24.917Z,49.39
2022-08-23T08:08:28.995Z,48.84
2022-08-23T08:09:31.362Z,48.64
2022-08-23T08:10:35.023Z,48.55
2022-08-23T08:11:38.222Z,48.15
2022-08-23T08:12:40.704Z,48.78
2022-08-23T08:14:55.401Z,49.13
2022-08-23T08:15:57.818Z,47.84
2022-08-23T08:17:01.279Z,47.30
2022-08-23T08:18:03.466Z,47.25
2022-08-23T08:19:07.651Z,47.42
2022-08-23T08:20:09.408Z,47.14
2022-08-23T08:21:11.685Z,46.75
2022-08-23T08:22:15.157Z,46.91
2022-08-23T08:23:22.330Z,46.17
2022-08-23T08:24:25.358Z,45.91
2022-08-23T08:33:54.466Z,46.55
2022-08-23T08:34:56.964Z,46.80
2022-08-23T08:36:02.023Z,46.28
2022-08-23T08:37:05.914Z,46.22
2022-08-23T08:38:12.022Z,46.15
2022-08-23T08:39:15.278Z,46.33
2022-08-23T08:40:17.819Z,46.06
2022-08-23T08:41:21.753Z,45.88
2022-08-23T08:42:24.178Z,45.91
2022-08-23T08:43:27.591Z,46.03
2022-08-23T08:44:30.235Z,45.11
2022-08-23T08:45:34.246Z,45.82
2022-08-23T08:46:38.029Z,46.46
2022-08-23T08:47:40.290Z,45.51
2022-08-23T08:48:46.473Z,44.94
2022-08-23T08:49:48.693Z,45.04
2022-08-23T08:50:52.343Z,45.26
2022-08-23T08:51:54.589Z,45.90
2022-08-23T08:52:56.970Z,44.59
2022-08-23T08:54:02.125Z,44.37
2022-08-23T08:55:05.294Z,45.54
2022-08-23T08:56:07.613Z,44.84
2022-08-23T08:57:09.983Z,43.96
2022-08-23T08:58:14.070Z,44.33
2022-08-23T08:59:17.427Z,44.92
2022-08-23T09:00:24.702Z,44.21
2022-08-23T09:01:27.851Z,43.95
2022-08-23T09:10:59.505Z,45.10
2022-08-23T09:12:01.886Z,43.46
2022-08-23T09:13:04.325Z,43.32
2022-08-23T09:14:06.902Z,44.71
2022-08-23T09:15:10.444Z,44.83
2022-08-23T09:16:15.911Z,44.26
2022-08-23T09:17:17.733Z,42.79
2022-08-23T09:18:22.302Z,42.76
2022-08-23T09:19:25.325Z,43.77
2022-08-23T09:20:31.028Z,42.44
2022-08-23T09:21:30.959Z,42.27
2022-08-23T09:22:35.573Z,42.90
2022-08-23T09:23:38.251Z,42.93
2022-08-23T09:24:40.497Z,43.94
2022-08-23T09:25:44.040Z,43.85
2022-08-23T09:26:47.231Z,44.02
2022-08-23T09:27:50.663Z,43.44
2022-08-23T09:28:55.621Z,43.63
2022-08-23T09:29:57.951Z,43.75
2022-08-23T09:31:01.286Z,43.95
2022-08-23T09:32:05.183Z,43.67
2022-08-23T09:33:09.941Z,43.68
2022-08-23T09:34:13.308Z,42.69
2022-08-23T09:35:15.666Z,41.97
2022-08-23T09:36:18.031Z,42.55
2022-08-23T09:37:21.557Z,42.34
2022-08-23T09:38:23.838Z,40.97
2022-08-23T09:39:30.430Z,41.13
2022-08-23T09:40:30.387Z,41.56
2022-08-23T09:41:32.813Z,41.09
2022-08-23T09:42:35.227Z,41.32
2022-08-23T09:43:39.574Z,40.76
2022-08-23T09:44:41.847Z,40.54
2022-08-23T09:45:46.927Z,41.22
2022-08-23T09:46:51.001Z,41.17
2022-08-23T09:47:53.384Z,41.32
2022-08-23T09:48:57.487Z,41.97
2022-08-23T09:50:02.486Z,40.99
2022-08-23T09:51:04.749Z,41.11
2022-08-23T09:52:07.178Z,40.66
2022-08-23T09:53:10.582Z,39.83
2022-08-23T09:54:12.929Z,41.10
2022-08-23T09:55:15.420Z,41.50
2022-08-23T09:56:17.891Z,40.40
2022-08-23T09:57:21.317Z,40.92
2022-08-23T09:58:23.727Z,39.77
2022-08-23T09:59:26.667Z,39.56
2022-08-23T10:00:28.572Z,40.36
2022-08-23T10:10:03.473Z,39.17
2022-08-23T10:11:05.870Z,38.33
2022-08-23T10:12:08.538Z,38.31
2022-08-23T10:13:10.914Z,38.11
2022-08-23T10:14:15.068Z,38.15
2022-08-23T10:15:17.342Z,38.75
2022-08-23T10:16:21.524Z,37.80
2022-08-23T10:17:23.848Z,37.66
2022-08-23T10:18:26.408Z,38.12
2022-08-23T10:19:28.973Z,37.49
2022-08-23T10:20:31.460Z,38.21
2022-08-23T10:21:35.542Z,37.60
2022-08-23T10:22:37.943Z,38.65
2022-08-23T10:23:40.532Z,38.49
2022-08-23T10:24:42.971Z,37.62
2022-08-23T10:25:45.416Z,37.61
2022-08-23T10:26:47.903Z,37.29
2022-08-23T10:27:50.475Z,36.93
2022-08-23T10:28:52.940Z,37.46
2022-08-23T10:29:55.466Z,37.22
2022-08-23T10:30:59.538Z,36.15
2022-08-23T10:32:05.666Z,37.14
2022-08-23T10:33:07.825Z,36.80
2022-08-23T10:34:10.335Z,36.26
2022-08-23T10:35:14.397Z,35.97
2022-08-23T10:36:18.389Z,36.30
2022-08-23T10:37:22.393Z,36.14
2022-08-23T10:38:24.740Z,36.79
2022-08-23T10:39:28.799Z,36.99
2022-08-23T10:40:32.843Z,36.72
2022-08-23T10:41:35.143Z,36.33
2022-08-23T10:42:37.617Z,35.67
2022-08-23T10:43:40.149Z,35.54
2022-08-23T10:44:42.656Z,35.54
2022-08-23T10:45:45.239Z,36.11
2022-08-23T10:46:49.390Z,35.63
2022-08-23T10:56:21.193Z,37.35
2022-08-23T10:57:25.351Z,36.85
2022-08-23T10:58:27.688Z,36.42
2022-08-23T10:59:30.236Z,36.30
2022-08-23T11:00:32.783Z,35.43
2022-08-23T11:01:36.931Z,35.34
2022-08-23T11:02:40.930Z,35.62
2022-08-23T11:03:43.273Z,34.89
2022-08-23T11:04:45.769Z,34.94
2022-08-23T11:05:49.911Z,35.15
2022-08-23T11:06:53.921Z,35.34
2022-08-23T11:07:56.346Z,36.16
2022-08-23T11:08:58.767Z,35.68
2022-08-23T11:10:01.313Z,35.14
2022-08-23T11:11:03.747Z,34.27
2022-08-23T11:12:07.187Z,34.30
2022-08-23T11:13:08.789Z,34.10
2022-08-23T11:14:11.382Z,36.15
2022-08-23T11:15:15.454Z,35.26
2022-08-23T11:16:17.830Z,33.86
2022-08-23T11:17:20.395Z,34.02
2022-08-23T11:18:22.898Z,34.54
2022-08-23T11:19:25.455Z,34.45
2022-08-23T11:20:27.933Z,34.37
2022-08-23T11:21:30.370Z,33.71
2022-08-23T11:22:34.533Z,33.26
2022-08-23T11:23:38.514Z,33.46
2022-08-23T11:24:42.550Z,33.53
2022-08-23T11:25:48.625Z,33.49
2022-08-23T11:26:50.853Z,33.80
2022-08-23T11:27:53.356Z,33.67
2022-08-23T11:28:55.903Z,35.14
2022-08-23T11:30:00.036Z,34.09
2022-08-23T11:31:02.478Z,34.17
2022-08-23T11:32:06.523Z,33.61
2022-08-23T11:33:08.853Z,33.67
2022-08-23T11:34:11.347Z,33.56
2022-08-23T11:35:15.505Z,33.88
2022-08-23T11:36:17.887Z,34.00
2022-08-23T11:37:20.662Z,33.45
2022-08-23T11:38:23.084Z,33.38
2022-08-23T11:39:25.695Z,33.08
2022-08-23T11:40:29.686Z,32.70
2022-08-23T11:41:32.040Z,33.35
2022-08-23T11:42:34.521Z,33.14
2022-08-23T11:43:37.051Z,33.26
2022-08-23T11:44:41.135Z,34.12
2022-08-23T11:45:43.494Z,35.09
2022-08-23T11:46:46.013Z,34.26
2022-08-23T11:47:48.522Z,33.46
2022-08-23T11:48:51.129Z,33.79
2022-08-23T11:49:53.686Z,31.98
2022-08-23T11:50:59.478Z,32.09
2022-08-23T11:52:00.256Z,33.42
2022-08-23T11:53:02.756Z,33.96
2022-08-23T11:54:05.276Z,33.68
2022-08-23T11:55:09.357Z,34.76
2022-08-23T11:56:11.737Z,32.28
2022-08-23T11:57:15.833Z,31.97
2022-08-23T11:58:18.323Z,32.46
2022-08-23T11:59:20.706Z,32.79
2022-08-23T12:00:26.834Z,31.26
2022-08-23T12:01:25.799Z,31.72
2022-08-23T12:02:29.826Z,31.05
2022-08-23T12:03:32.228Z,31.59
2022-08-23T12:04:34.604Z,31.47
2022-08-23T12:05:37.149Z,30.53
2022-08-23T12:06:40.438Z,31.46
2022-08-23T12:07:43.810Z,31.82
2022-08-23T12:08:46.174Z,31.62
2022-08-23T12:09:48.687Z,32.88
2022-08-23T12:10:51.198Z,32.91
2022-08-23T12:11:53.690Z,31.56
2022-08-23T12:12:56.216Z,31.01
2022-08-23T12:13:58.809Z,30.66
2022-08-23T12:15:01.338Z,30.29
2022-08-23T12:16:04.008Z,31.51
2022-08-23T12:17:07.988Z,29.79
2022-08-23T12:18:12.009Z,29.35
2022-08-23T12:19:14.345Z,29.08
2022-08-23T12:20:17.380Z,29.65
2022-08-23T12:21:19.384Z,29.46
2022-08-23T12:22:22.868Z,29.20
2022-08-23T12:23:25.328Z,29.46
2022-08-23T12:24:27.888Z,28.58
2022-08-23T12:25:32.001Z,28.70
2022-08-23T12:26:35.230Z,29.08
2022-08-23T12:27:38.504Z,29.17
2022-08-23T12:28:40.799Z,30.04
2022-08-23T12:29:43.326Z,30.08
2022-08-23T12:30:45.839Z,28.78
2022-08-23T12:31:48.377Z,29.31
2022-08-23T12:32:50.859Z,28.44
2022-08-23T12:33:54.971Z,27.70
2022-08-23T12:34:58.351Z,28.32
2022-08-23T12:36:02.415Z,29.54
2022-08-23T12:45:35.657Z,29.22
2022-08-23T12:46:38.147Z,28.93
2022-08-23T12:47:42.948Z,29.87
2022-08-23T12:48:44.876Z,29.53
2022-08-23T12:49:48.848Z,30.01
2022-08-23T12:50:52.853Z,27.81
2022-08-23T12:51:55.473Z,27.20
2022-08-23T12:52:58.972Z,27.13
2022-08-23T12:54:01.392Z,26.47
2022-08-23T12:55:05.545Z,26.24
2022-08-23T12:56:09.540Z,28.25
2022-08-23T12:57:12.011Z,28.15
2022-08-23T12:58:16.058Z,28.26
2022-08-23T12:59:18.582Z,27.70
2022-08-23T13:00:21.067Z,25.94
2022-08-23T13:01:23.571Z,25.86
2022-08-23T13:02:27.678Z,25.93
2022-08-23T13:03:31.652Z,25.83
2022-08-23T13:04:33.988Z,26.41
2022-08-23T13:05:36.548Z,25.64
2022-08-23T13:06:39.001Z,26.06
2022-08-23T13:07:43.152Z,26.06
2022-08-23T13:08:47.120Z,25.73
2022-08-23T13:09:53.080Z,25.48
2022-08-23T13:10:52.058Z,25.77
2022-08-23T13:11:54.624Z,25.67
2022-08-23T13:12:57.231Z,25.77
2022-08-23T13:13:59.747Z,26.35
2022-08-23T13:15:02.285Z,25.70
2022-08-23T13:16:07.239Z,25.37
2022-08-23T13:17:09.649Z,26.08
2022-08-23T13:18:11.496Z,26.43
2022-08-23T13:19:13.830Z,25.88
2022-08-23T13:20:16.388Z,25.84
2022-08-23T13:21:18.801Z,26.10
2022-08-23T13:22:21.338Z,25.24
2022-08-23T13:23:25.494Z,27.02
2022-08-23T13:24:30.049Z,25.31
2022-08-23T13:25:32.064Z,26.12
2022-08-23T13:26:32.959Z,26.85
2022-08-23T13:27:38.421Z,26.60
2022-08-23T13:28:41.064Z,25.50
2022-08-23T13:29:43.477Z,25.60
2022-08-23T13:30:46.003Z,24.81
2022-08-23T13:31:51.062Z,24.80
2022-08-23T13:32:53.430Z,24.33
2022-08-23T13:33:57.562Z,23.68
2022-08-23T13:35:01.598Z,24.33
2022-08-23T13:36:05.579Z,24.25
2022-08-23T13:37:07.990Z,23.84
2022-08-23T13:38:10.523Z,23.56
2022-08-23T13:39:12.993Z,23.80
2022-08-23T13:40:15.489Z,23.64
2022-08-23T13:41:17.974Z,23.57
2022-08-23T13:42:20.499Z,24.06
2022-08-23T13:43:24.651Z,24.88
2022-08-23T13:44:27.007Z,24.07
2022-08-23T13:45:29.471Z,23.40
2022-08-23T13:46:32.094Z,23.99
2022-08-23T13:47:35.118Z,23.76
2022-08-23T13:48:38.724Z,24.02
2022-08-23T13:49:42.695Z,23.88
2022-08-23T13:50:45.012Z,24.12
2022-08-23T13:51:47.445Z,23.89
2022-08-23T13:53:13.215Z,24.61
2022-08-23T13:53:54.104Z,25.12
2022-08-23T13:54:58.099Z,24.69
2022-08-23T13:56:02.092Z,23.80
2022-08-23T13:57:04.564Z,24.66
2022-08-23T13:58:07.126Z,24.60
2022-08-23T13:59:09.488Z,24.48
2022-08-23T14:00:14.382Z,23.59
2022-08-23T14:01:16.121Z,23.79
2022-08-23T14:02:20.404Z,24.20
2022-08-23T14:03:22.614Z,24.96
2022-08-23T14:04:26.743Z,22.57
2022-08-23T14:13:59.950Z,22.92
2022-08-23T14:15:02.345Z,22.84
2022-08-23T14:17:10.720Z,22.74
2022-08-23T14:18:12.953Z,22.76
2022-08-23T14:19:16.385Z,22.35
2022-08-23T14:20:43.513Z,22.23
2022-08-23T14:21:22.163Z,22.60
2022-08-23T14:22:26.562Z,24.37
2022-08-23T14:23:28.954Z,22.51
2022-08-23T14:24:33.065Z,22.93
2022-08-23T14:25:35.490Z,22.73
2022-08-23T14:26:37.959Z,23.29
2022-08-23T14:27:40.494Z,23.08
2022-08-23T14:28:44.545Z,22.90
2022-08-23T14:29:45.522Z,22.99
2022-08-23T14:30:48.132Z,24.20
2022-08-23T14:31:50.596Z,23.32
2022-08-23T14:32:53.114Z,23.24
2022-08-23T14:33:58.846Z,24.12
2022-08-23T14:34:58.159Z,24.20
2022-08-23T14:36:00.712Z,24.71
2022-08-23T14:38:05.774Z,23.72
2022-08-23T14:39:08.327Z,23.90
2022-08-23T14:40:10.931Z,24.13
2022-08-23T14:41:13.302Z,23.83
2022-08-23T14:42:15.801Z,23.55
2022-08-23T14:43:18.306Z,24.31
2022-08-23T14:44:20.730Z,24.70
2022-08-23T14:45:23.252Z,24.15
2022-08-23T14:46:25.841Z,24.16
2022-08-23T14:47:28.283Z,23.65
2022-08-23T14:48:30.860Z,23.62
2022-08-23T14:49:34.962Z,23.85
2022-08-23T14:50:37.356Z,23.78
2022-08-23T14:51:43.034Z,24.20
2022-08-23T14:52:42.326Z,24.67
2022-08-23T14:53:46.459Z,25.91
2022-08-23T14:54:49.522Z,27.76
2022-08-23T14:56:07.067Z,28.03
2022-08-23T14:56:55.286Z,28.43
2022-08-23T14:57:59.465Z,29.52
2022-08-23T14:59:03.441Z,28.44
2022-08-23T15:00:05.772Z,28.67
2022-08-23T15:01:10.134Z,28.52
2022-08-23T15:02:14.062Z,26.02
2022-08-23T15:03:16.487Z,25.22
2022-08-23T15:04:19.141Z,25.06
2022-08-23T15:05:21.581Z,24.99
2022-08-23T15:06:24.038Z,25.43
2022-08-23T15:07:26.540Z,25.42
2022-08-23T15:08:29.172Z,23.97
2022-08-23T15:09:31.748Z,25.70
2022-08-23T15:12:13.057Z,23.71
2022-08-23T15:13:55.182Z,23.07
2022-08-23T15:14:46.452Z,23.38
2022-08-23T15:15:48.733Z,22.54
2022-08-23T15:16:50.985Z,23.51
2022-08-23T15:17:53.557Z,23.74
2022-08-23T15:18:57.678Z,22.49
2022-08-23T15:20:01.710Z,24.75
2022-08-23T15:21:04.175Z,22.21
2022-08-23T15:22:18.974Z,21.22
2022-08-23T15:23:10.803Z,21.45
2022-08-23T15:24:13.277Z,21.31
2022-08-23T15:25:15.756Z,21.30
2022-08-23T15:26:18.284Z,21.42
2022-08-23T15:27:22.427Z,20.95
2022-08-23T15:28:24.841Z,22.12
2022-08-23T15:29:27.360Z,21.23
2022-08-23T15:30:30.240Z,21.38
2022-08-23T15:31:33.969Z,21.81
2022-08-23T15:32:38.029Z,20.58
2022-08-23T15:33:42.011Z,22.05
2022-08-23T15:34:46.306Z,22.41
2022-08-23T15:35:50.040Z,22.91
2022-08-23T15:36:52.391Z,20.72
2022-08-23T15:37:54.867Z,20.58
2022-08-23T15:38:57.519Z,21.22
2022-08-23T15:40:00.047Z,20.83
2022-08-23T15:41:04.122Z,21.33
2022-08-23T15:42:06.524Z,20.67
2022-08-23T15:43:09.053Z,20.36
2022-08-23T15:44:11.703Z,20.37
2022-08-23T15:45:14.210Z,20.96
2022-08-23T15:46:16.789Z,21.01
2022-08-23T15:47:20.930Z,20.93
2022-08-23T15:48:23.247Z,21.21
2022-08-23T15:49:25.835Z,21.18
2022-08-23T15:50:29.971Z,21.97
2022-08-23T15:51:32.328Z,21.26
2022-08-23T15:52:36.492Z,21.02
2022-08-23T15:53:40.477Z,21.02
2022-08-23T15:54:42.899Z,20.33
2022-08-23T15:55:45.424Z,21.68
2022-08-23T15:56:47.968Z,21.19
2022-08-23T15:57:52.107Z,20.43
2022-08-23T15:58:54.445Z,20.25
2022-08-23T15:59:57.001Z,20.51
2022-08-23T16:00:59.566Z,20.39
2022-08-23T16:02:02.119Z,20.14
2022-08-23T16:03:17.146Z,20.75
2022-08-23T16:04:07.299Z,20.67
2022-08-23T16:05:11.443Z,20.91
2022-08-23T16:06:13.802Z,20.12
2022-08-23T16:07:17.962Z,20.30
2022-08-23T16:08:21.978Z,20.00
2022-08-23T16:09:24.346Z,20.12
2022-08-23T16:10:27.236Z,20.35
2022-08-23T16:11:29.400Z,20.24
2022-08-23T16:12:31.896Z,19.99
2022-08-23T16:13:34.426Z,20.58
2022-08-23T16:14:38.620Z,20.80
2022-08-23T16:15:40.971Z,20.37
2022-08-23T16:16:43.709Z,20.92
2022-08-23T16:17:46.095Z,21.04
2022-08-23T16:18:51.694Z,20.77
2022-08-23T16:19:52.845Z,20.27
2022-08-23T16:20:55.471Z,20.01
2022-08-23T16:21:58.009Z,19.53
2022-08-23T16:23:01.001Z,19.94
2022-08-23T16:24:03.507Z,20.78
2022-08-23T16:25:06.112Z,20.19
2022-08-23T16:26:08.790Z,20.81
2022-08-23T16:27:11.471Z,19.85
2022-08-23T16:28:14.123Z,20.74
2022-08-23T16:29:16.724Z,19.50
2022-08-23T16:30:20.952Z,20.59
2022-08-23T16:31:37.570Z,19.73
2022-08-23T16:32:25.940Z,20.22
2022-08-23T16:33:30.224Z,19.53
2022-08-23T16:34:32.668Z,20.20
2022-08-23T16:35:35.195Z,20.41
2022-08-23T16:36:37.752Z,21.25
2022-08-23T16:37:40.278Z,20.25
2022-08-23T16:38:42.830Z,19.96
2022-08-23T16:39:45.386Z,20.02
2022-08-23T16:40:49.512Z,19.89
2022-08-23T16:41:52.035Z,21.18
2022-08-23T16:42:54.601Z,20.17
2022-08-23T16:43:58.669Z,19.99
2022-08-23T16:45:02.805Z,20.26
2022-08-23T16:46:05.328Z,20.64
2022-08-23T16:47:09.446Z,21.03
2022-08-23T16:48:14.807Z,19.85
2022-08-23T16:49:15.967Z,20.02
2022-08-23T16:50:20.061Z,20.46
2022-08-23T16:51:25.004Z,20.75
2022-08-23T16:52:34.478Z,20.16
2022-08-23T16:53:30.001Z,20.76
2022-08-23T16:54:34.044Z,21.29
2022-08-23T16:55:36.605Z,21.21
2022-08-23T16:56:39.100Z,21.85
2022-08-23T16:57:41.577Z,21.35
2022-08-23T16:58:45.737Z,20.84
2022-08-23T16:59:49.777Z,21.12
2022-08-23T17:00:53.763Z,20.93
2022-08-23T17:01:56.203Z,21.99
2022-08-23T17:02:58.680Z,22.31
2022-08-23T17:04:01.186Z,22.52
2022-08-23T17:05:05.276Z,22.37
2022-08-23T17:06:09.303Z,22.28
2022-08-23T17:07:13.320Z,21.33
2022-08-23T17:08:15.643Z,21.46
2022-08-23T17:09:18.120Z,21.72
2022-08-23T17:10:22.171Z,21.27
2022-08-23T17:11:24.606Z,21.53
2022-08-23T17:12:27.070Z,21.67
2022-08-23T17:13:29.595Z,22.22
2022-08-23T17:14:32.107Z,21.74
2022-08-23T17:15:34.650Z,22.15
2022-08-23T17:16:37.107Z,21.61
2022-08-23T17:17:39.650Z,21.61
2022-08-23T17:18:42.173Z,21.92
2022-08-23T17:19:44.710Z,22.37
2022-08-23T17:20:47.247Z,22.96
2022-08-23T17:21:49.760Z,24.00
2022-08-23T17:22:52.269Z,22.71
2022-08-23T17:23:54.806Z,23.19
2022-08-23T17:24:57.323Z,22.43
2022-08-23T17:25:59.869Z,23.22
2022-08-23T17:27:02.341Z,23.15
2022-08-23T17:28:04.950Z,22.30
2022-08-23T17:29:07.462Z,22.81
2022-08-23T17:30:11.589Z,22.67
2022-08-23T17:31:14.020Z,22.71
2022-08-23T17:32:18.117Z,23.03
2022-08-23T17:33:20.668Z,23.29
2022-08-23T17:34:24.755Z,23.20
2022-08-23T17:35:27.043Z,23.17
2022-08-23T17:36:29.556Z,23.64
2022-08-23T17:37:32.023Z,24.06
2022-08-23T17:38:34.511Z,24.52
2022-08-23T17:39:38.585Z,25.78
2022-08-23T17:40:42.538Z,25.00
2022-08-23T17:41:45.620Z,25.39
2022-08-23T17:42:47.412Z,25.03
2022-08-23T17:52:18.978Z,27.47
2022-08-23T17:53:21.435Z,28.17
2022-08-23T17:54:24.024Z,29.14
2022-08-23T17:55:29.972Z,27.92
2022-08-23T17:56:30.466Z,28.98
2022-08-23T17:57:32.904Z,29.58
2022-08-23T17:58:35.409Z,30.11
2022-08-23T17:59:39.576Z,30.26
2022-08-23T18:00:42.904Z,30.67
2022-08-23T18:01:45.236Z,31.50
2022-08-23T18:02:47.710Z,30.36
2022-08-23T18:03:50.208Z,30.12
2022-08-23T18:04:52.700Z,29.95
2022-08-23T18:05:55.171Z,30.24
2022-08-23T18:06:57.697Z,30.13
2022-08-23T18:08:00.281Z,30.57
2022-08-23T18:09:04.372Z,30.81
2022-08-23T18:10:06.730Z,30.62
2022-08-23T18:11:09.211Z,30.38
2022-08-23T18:12:11.701Z,30.43
2022-08-23T18:13:14.166Z,30.68
2022-08-23T18:14:18.256Z,30.81
2022-08-23T18:23:48.233Z,32.34
2022-08-23T18:24:50.743Z,31.91
2022-08-23T18:25:53.154Z,31.77
2022-08-23T18:26:55.633Z,32.06
2022-08-23T18:27:59.007Z,32.31
2022-08-23T18:37:29.680Z,33.60
2022-08-23T18:38:37.011Z,33.55
2022-08-23T18:39:44.010Z,33.19
2022-08-23T18:40:46.095Z,33.35
2022-08-23T18:50:17.560Z,33.95
2022-08-23T18:51:20.349Z,34.04
2022-08-23T19:00:50.876Z,34.67
2022-08-23T19:01:54.733Z,34.72
2022-08-23T19:11:27.128Z,35.67
2022-08-23T19:20:59.673Z,36.46
2022-08-23T19:30:32.609Z,36.44
2022-08-23T19:40:02.538Z,37.23
2022-08-23T19:41:04.946Z,37.06
2022-08-23T19:50:40.065Z,38.30
2022-08-23T20:00:15.811Z,38.97
2022-08-23T20:09:46.317Z,41.57
2022-08-23T20:19:21.880Z,41.52
2022-08-23T20:28:59.536Z,42.47
2022-08-23T20:38:33.760Z,42.31
2022-08-23T20:48:00.850Z,43.43
2022-08-23T20:57:36.810Z,42.91
2022-08-23T21:07:08.508Z,43.58
2022-08-23T21:16:42.025Z,45.22
2022-08-23T21:26:17.803Z,46.96
2022-08-23T21:35:53.169Z,47.34
2022-08-23T21:45:25.001Z,46.86
2022-08-23T21:54:59.405Z,45.93
2022-08-23T22:04:33.964Z,46.39
2022-08-23T22:14:09.403Z,46.49
2022-08-23T22:23:43.863Z,45.54
2022-08-23T22:24:46.253Z,45.25
2022-08-23T22:34:20.098Z,44.29
2022-08-23T22:43:57.097Z,44.73
2022-08-23T22:53:29.463Z,46.42
2022-08-23T23:03:05.400Z,48.13
2022-08-23T23:12:39.855Z,47.57
2022-08-23T23:22:12.415Z,48.11
2022-08-23T23:31:48.360Z,48.38
2022-08-23T23:41:21.006Z,47.33
2022-08-23T23:50:56.787Z,47.58
